KPPA/PPA METAR and TAF weather

Enter ICAO airport designator
Station Type Date Time Source
KPPA METAR 2019/10/23 02:15 UTC NOAA

KPPA 230215Z AUTO 17008KT 10SM CLR 13/M04 A3006 RMK AO2 T01261038


Station Type Date Time Source
KPPA Decoded METAR 2019/10/23 02:15 UTC NOAA

Pampa, Perry Lefors Field Airport, TX, United States (KPPA) 35-36-46N 100-59-46W
Oct 22, 2019 - 10:15 PM EDT / 2019.10.23 0215 UTC
Wind: from the S (170 degrees) at 9 MPH (8 KT):0
Visibility: 10 mile(s):0
Sky conditions: clear
Temperature: 54.7 F (12.6 C)
Dew Point: 25.2 F (-3.8 C)
Relative Humidity: 31%
Pressure (altimeter): 30.06 in. Hg (1017 hPa)
ob: KPPA 230215Z AUTO 17008KT 10SM CLR 13/M04 A3006 RMK AO2 T01261038
cycle: 2

Station Type Date Time Source
KPPA TAF UTC NOAA

Error!

Example: see airport list